createdAt,value
2022-08-28T00:00:16.877Z,17.31
2022-08-28T00:02:43.580Z,17.28
2022-08-28T00:05:14.055Z,17.26
2022-08-28T00:07:47.915Z,17.21
2022-08-28T00:10:16.853Z,17.23
2022-08-28T00:12:44.702Z,17.16
2022-08-28T00:15:17.516Z,17.18
2022-08-28T00:17:44.121Z,17.12
2022-08-28T00:20:21.244Z,17.14
2022-08-28T00:22:51.358Z,17.16
2022-08-28T00:25:20.114Z,17.21
2022-08-28T00:27:52.491Z,17.14
2022-08-28T00:30:25.142Z,17.17
2022-08-28T00:32:53.964Z,17.18
2022-08-28T00:35:21.135Z,17.19
2022-08-28T00:37:48.142Z,17.18
2022-08-28T00:40:20.087Z,17.17
2022-08-28T00:42:58.089Z,17.17
2022-08-28T00:45:25.589Z,17.15
2022-08-28T00:47:55.199Z,17.10
2022-08-28T00:50:25.515Z,17.11
2022-08-28T00:52:58.523Z,17.13
2022-08-28T00:55:27.072Z,17.13
2022-08-28T00:57:56.788Z,17.11
2022-08-28T01:00:33.771Z,17.13
2022-08-28T01:03:03.291Z,17.12
2022-08-28T01:05:30.285Z,17.09
2022-08-28T01:07:58.964Z,17.11
2022-08-28T01:10:29.710Z,17.07
2022-08-28T01:12:57.789Z,17.07
2022-08-28T01:15:29.869Z,17.08
2022-08-28T01:18:04.653Z,17.08
2022-08-28T01:20:36.384Z,17.04
2022-08-28T01:23:25.032Z,17.04
2022-08-28T01:25:52.576Z,16.99
2022-08-28T01:28:19.117Z,17.03
2022-08-28T01:30:48.169Z,17.00
2022-08-28T01:33:15.881Z,17.01
2022-08-28T01:35:45.890Z,17.04
2022-08-28T01:38:19.323Z,17.04
2022-08-28T01:40:49.426Z,17.05
2022-08-28T01:43:24.053Z,17.01
2022-08-28T01:45:54.407Z,17.05
2022-08-28T01:48:22.636Z,17.05
2022-08-28T01:50:49.156Z,16.98
2022-08-28T01:53:17.816Z,17.08
2022-08-28T01:55:46.002Z,17.08
2022-08-28T01:58:13.224Z,17.03
2022-08-28T02:00:41.108Z,17.07
2022-08-28T02:03:07.647Z,17.09
2022-08-28T02:05:35.872Z,17.01
2022-08-28T02:08:05.300Z,17.11
2022-08-28T02:10:35.631Z,17.06
2022-08-28T02:13:03.873Z,17.04
2022-08-28T02:15:32.861Z,16.99
2022-08-28T02:18:00.069Z,17.06
2022-08-28T02:20:29.207Z,17.03
2022-08-28T02:22:58.103Z,17.04
2022-08-28T02:25:24.934Z,17.03
2022-08-28T02:27:51.522Z,17.02
2022-08-28T02:30:18.464Z,17.02
2022-08-28T02:32:46.186Z,17.04
2022-08-28T02:35:15.406Z,17.06
2022-08-28T02:37:44.217Z,17.06
2022-08-28T02:40:16.749Z,17.07
2022-08-28T02:42:44.213Z,17.05
2022-08-28T02:45:15.224Z,17.01
2022-08-28T02:47:43.810Z,17.06
2022-08-28T02:50:13.472Z,17.06
2022-08-28T02:52:43.866Z,16.99
2022-08-28T02:55:12.958Z,16.99
2022-08-28T02:57:39.805Z,17.01
2022-08-28T03:00:11.818Z,17.03
2022-08-28T03:02:41.583Z,17.04
2022-08-28T03:05:16.765Z,17.04
2022-08-28T03:07:43.245Z,17.06
2022-08-28T03:10:10.900Z,17.06
2022-08-28T03:12:38.226Z,17.08
2022-08-28T03:15:06.207Z,17.04
2022-08-28T03:17:32.628Z,17.06
2022-08-28T03:19:59.246Z,17.04
2022-08-28T03:22:45.028Z,17.00
2022-08-28T03:25:12.550Z,16.98
2022-08-28T03:27:41.858Z,16.99
2022-08-28T03:30:08.959Z,16.99
2022-08-28T03:32:35.948Z,16.99
2022-08-28T03:35:04.183Z,16.98
2022-08-28T03:37:31.437Z,16.92
2022-08-28T03:39:57.994Z,16.89
2022-08-28T03:42:24.523Z,16.93
2022-08-28T03:44:51.603Z,16.94
2022-08-28T03:47:18.303Z,16.88
2022-08-28T03:49:48.759Z,16.85
2022-08-28T03:52:15.707Z,16.91
2022-08-28T03:54:42.300Z,16.93
2022-08-28T03:57:09.003Z,16.95
2022-08-28T03:59:38.399Z,16.85
2022-08-28T04:02:07.321Z,16.87
2022-08-28T04:04:33.883Z,16.85
2022-08-28T04:07:00.328Z,16.85
2022-08-28T04:09:27.042Z,16.88
2022-08-28T04:11:54.143Z,16.83
2022-08-28T04:14:20.649Z,16.86
2022-08-28T04:16:47.190Z,16.84
2022-08-28T04:19:13.928Z,16.86
2022-08-28T04:21:44.030Z,16.79
2022-08-28T04:24:13.686Z,16.77
2022-08-28T04:26:42.064Z,16.78
2022-08-28T04:29:08.819Z,16.85
2022-08-28T04:31:36.023Z,16.83
2022-08-28T04:34:05.342Z,16.88
2022-08-28T04:36:35.682Z,16.83
2022-08-28T04:39:05.893Z,16.83
2022-08-28T04:41:32.554Z,16.81
2022-08-28T04:43:59.030Z,16.82
2022-08-28T04:46:26.116Z,16.82
2022-08-28T04:48:58.856Z,16.82
2022-08-28T04:51:26.325Z,16.82
2022-08-28T04:53:52.966Z,16.83
2022-08-28T04:56:19.384Z,16.84
2022-08-28T04:58:46.128Z,16.82
2022-08-28T05:01:19.405Z,16.84
2022-08-28T05:03:47.858Z,16.84
2022-08-28T05:06:16.124Z,16.83
2022-08-28T05:08:42.868Z,16.81
2022-08-28T05:11:33.012Z,16.83
2022-08-28T05:14:00.948Z,16.85
2022-08-28T05:16:29.644Z,16.89
2022-08-28T05:19:02.873Z,16.94
2022-08-28T05:21:29.364Z,16.81
2022-08-28T05:23:57.818Z,16.82
2022-08-28T05:26:26.784Z,16.89
2022-08-28T05:28:55.969Z,16.92
2022-08-28T05:31:23.332Z,16.90
2022-08-28T05:33:51.819Z,16.96
2022-08-28T05:36:19.635Z,16.97
2022-08-28T05:38:46.778Z,17.02
2022-08-28T05:41:20.596Z,17.00
2022-08-28T05:43:47.848Z,17.05
2022-08-28T05:46:16.159Z,17.04
2022-08-28T05:48:46.138Z,17.11
2022-08-28T05:51:19.226Z,17.09
2022-08-28T05:53:47.780Z,17.07
2022-08-28T05:56:19.681Z,17.01
2022-08-28T05:58:46.198Z,17.00
2022-08-28T06:01:19.564Z,17.08
2022-08-28T06:03:53.868Z,17.14
2022-08-28T06:06:25.473Z,17.25
2022-08-28T06:08:59.475Z,17.36
2022-08-28T06:11:27.197Z,17.49
2022-08-28T06:14:04.702Z,17.58
2022-08-28T06:16:34.996Z,17.72
2022-08-28T06:19:01.761Z,17.55
2022-08-28T06:21:30.502Z,17.57
2022-08-28T06:23:57.337Z,17.83
2022-08-28T06:26:24.036Z,17.68
2022-08-28T06:28:52.422Z,17.74
2022-08-28T06:31:23.508Z,17.90
2022-08-28T06:33:56.165Z,17.75
2022-08-28T06:36:24.076Z,17.78
2022-08-28T06:38:50.754Z,17.83
2022-08-28T06:41:19.787Z,17.71
2022-08-28T06:43:46.559Z,17.83
2022-08-28T06:46:13.702Z,17.70
2022-08-28T06:48:43.297Z,17.88
2022-08-28T06:51:14.102Z,17.85
2022-08-28T06:53:46.170Z,17.98
2022-08-28T06:56:26.414Z,18.06
2022-08-28T06:58:55.870Z,18.17
2022-08-28T07:01:27.503Z,18.06
2022-08-28T07:04:01.321Z,18.09
2022-08-28T07:06:31.676Z,18.24
2022-08-28T07:08:58.248Z,18.12
2022-08-28T07:11:30.344Z,18.25
2022-08-28T07:13:57.982Z,18.40
2022-08-28T07:16:27.672Z,18.47
2022-08-28T07:18:54.560Z,18.40
2022-08-28T07:21:21.267Z,18.47
2022-08-28T07:23:48.289Z,18.39
2022-08-28T07:26:22.476Z,18.47
2022-08-28T07:28:49.625Z,18.34
2022-08-28T07:31:20.996Z,18.38
2022-08-28T07:33:50.095Z,18.36
2022-08-28T07:36:29.907Z,18.42
2022-08-28T07:39:00.786Z,18.43
2022-08-28T07:41:32.878Z,18.52
2022-08-28T07:44:18.666Z,18.46
2022-08-28T07:46:45.895Z,18.58
2022-08-28T07:49:17.790Z,18.55
2022-08-28T07:51:46.870Z,18.56
2022-08-28T07:54:17.780Z,18.56
2022-08-28T07:56:45.376Z,18.57
2022-08-28T07:59:12.316Z,18.57
2022-08-28T08:01:48.338Z,18.58
2022-08-28T08:04:19.850Z,18.54
2022-08-28T08:06:46.864Z,18.55
2022-08-28T08:09:15.564Z,18.59
2022-08-28T08:11:42.894Z,18.69
2022-08-28T08:14:16.457Z,18.70
2022-08-28T08:16:45.026Z,18.81
2022-08-28T08:19:15.497Z,18.84
2022-08-28T08:21:54.533Z,18.88
2022-08-28T08:24:25.670Z,18.81
2022-08-28T08:27:00.114Z,18.84
2022-08-28T08:29:33.673Z,18.81
2022-08-28T08:32:05.824Z,18.84
2022-08-28T08:34:35.390Z,18.87
2022-08-28T08:37:01.976Z,18.88
2022-08-28T08:39:28.459Z,18.94
2022-08-28T08:42:00.897Z,19.05
2022-08-28T08:44:34.416Z,19.03
2022-08-28T08:47:27.076Z,19.08
2022-08-28T08:50:00.550Z,19.05
2022-08-28T08:52:36.935Z,19.13
2022-08-28T08:55:17.125Z,19.07
2022-08-28T08:57:49.450Z,19.22
2022-08-28T09:00:17.358Z,19.14
2022-08-28T09:02:53.492Z,19.19
2022-08-28T09:05:24.195Z,19.19
2022-08-28T09:07:59.407Z,19.21
2022-08-28T09:10:38.754Z,18.97
2022-08-28T09:13:25.850Z,19.06
2022-08-28T09:15:52.851Z,19.17
2022-08-28T09:18:22.456Z,19.26
2022-08-28T09:20:55.402Z,19.26
2022-08-28T09:23:25.092Z,19.37
2022-08-28T09:25:59.698Z,19.35
2022-08-28T09:28:32.408Z,19.31
2022-08-28T09:31:05.272Z,19.28
2022-08-28T09:33:52.593Z,19.20
2022-08-28T09:36:23.389Z,19.20
2022-08-28T09:39:07.234Z,19.39
2022-08-28T09:41:58.445Z,19.32
2022-08-28T09:44:25.450Z,19.31
2022-08-28T09:46:52.406Z,19.25
2022-08-28T09:49:29.056Z,19.37
2022-08-28T09:51:59.465Z,19.37
2022-08-28T09:54:42.544Z,19.31
2022-08-28T09:57:09.926Z,19.44
2022-08-28T09:59:36.498Z,19.46
2022-08-28T10:02:42.430Z,19.49
2022-08-28T10:05:16.308Z,19.49
2022-08-28T10:08:17.413Z,19.45
2022-08-28T10:11:00.884Z,19.47
2022-08-28T10:13:31.555Z,19.53
2022-08-28T10:16:10.218Z,19.48
2022-08-28T10:19:11.542Z,19.48
2022-08-28T10:22:11.256Z,19.53
2022-08-28T10:25:02.690Z,19.74
2022-08-28T10:27:45.825Z,19.67
2022-08-28T10:30:20.842Z,19.62
2022-08-28T10:33:08.231Z,19.59
2022-08-28T10:35:57.699Z,19.71
2022-08-28T10:38:39.859Z,19.75
2022-08-28T10:41:13.374Z,19.69
2022-08-28T10:43:49.592Z,19.76
2022-08-28T10:46:27.521Z,19.77
2022-08-28T10:49:18.978Z,19.79
2022-08-28T10:52:13.151Z,19.85
2022-08-28T10:54:42.609Z,19.83
2022-08-28T10:57:21.291Z,19.78
2022-08-28T10:59:52.231Z,19.91
2022-08-28T11:02:22.280Z,19.84
2022-08-28T11:04:49.355Z,19.82
2022-08-28T11:07:26.859Z,19.90
2022-08-28T11:09:53.453Z,19.92
2022-08-28T11:12:37.816Z,19.99
2022-08-28T11:15:40.979Z,19.86
2022-08-28T11:18:16.705Z,19.84
2022-08-28T11:21:09.888Z,19.80
2022-08-28T11:23:47.409Z,19.94
2022-08-28T11:26:23.540Z,20.00
2022-08-28T11:28:51.991Z,19.98
2022-08-28T11:31:28.770Z,20.01
2022-08-28T11:33:58.928Z,20.00
2022-08-28T11:36:27.568Z,20.07
2022-08-28T11:38:54.001Z,20.11
2022-08-28T11:41:30.337Z,20.08
2022-08-28T11:43:59.524Z,20.18
2022-08-28T11:46:33.122Z,20.32
2022-08-28T11:49:03.193Z,20.36
2022-08-28T11:51:43.079Z,20.38
2022-08-28T11:54:47.288Z,20.46
2022-08-28T11:57:28.337Z,20.32
2022-08-28T11:59:59.211Z,20.26
2022-08-28T12:02:48.086Z,20.44
2022-08-28T12:05:14.512Z,20.41
2022-08-28T12:07:52.046Z,20.43
2022-08-28T12:10:24.625Z,20.44
2022-08-28T12:12:55.814Z,20.44
2022-08-28T12:15:28.598Z,20.61
2022-08-28T12:18:03.404Z,20.57
2022-08-28T12:20:51.305Z,20.54
2022-08-28T12:23:23.733Z,20.45
2022-08-28T12:26:03.459Z,20.61
2022-08-28T12:28:45.900Z,20.52
2022-08-28T12:31:50.533Z,20.47
2022-08-28T12:34:55.129Z,20.62
2022-08-28T12:37:49.469Z,20.67
2022-08-28T12:40:27.633Z,20.66
2022-08-28T12:43:00.307Z,20.48
2022-08-28T12:45:53.645Z,20.53
2022-08-28T12:48:27.268Z,20.57
2022-08-28T12:51:18.944Z,20.61
2022-08-28T12:53:51.325Z,20.55
2022-08-28T12:56:21.031Z,20.57
2022-08-28T12:58:48.498Z,20.46
2022-08-28T13:01:21.063Z,20.61
2022-08-28T13:03:54.580Z,20.72
2022-08-28T13:06:28.970Z,20.83
2022-08-28T13:09:06.232Z,20.79
2022-08-28T13:11:45.992Z,20.82
2022-08-28T13:14:12.929Z,20.81
2022-08-28T13:16:43.359Z,20.74
2022-08-28T13:19:21.786Z,20.76
2022-08-28T13:21:48.339Z,20.76
2022-08-28T13:24:43.416Z,20.82
2022-08-28T13:27:21.178Z,20.63
2022-08-28T13:29:59.948Z,20.64
2022-08-28T13:32:30.944Z,20.65
2022-08-28T13:35:16.594Z,20.65
2022-08-28T13:37:53.127Z,20.60
2022-08-28T13:40:56.835Z,20.54
2022-08-28T13:43:13.787Z,20.58
2022-08-28T13:45:43.943Z,20.48
2022-08-28T13:48:17.260Z,20.47
2022-08-28T13:50:47.557Z,20.46
2022-08-28T13:53:17.719Z,20.47
2022-08-28T13:55:45.332Z,20.47
2022-08-28T13:58:13.899Z,20.50
2022-08-28T14:00:46.503Z,20.50
2022-08-28T14:03:32.387Z,20.57
2022-08-28T14:05:59.043Z,20.76
2022-08-28T14:08:26.491Z,20.63
2022-08-28T14:10:55.359Z,20.67
2022-08-28T14:13:23.280Z,20.64
2022-08-28T14:15:50.126Z,20.58
2022-08-28T14:18:21.226Z,20.50
2022-08-28T14:20:48.026Z,20.58
2022-08-28T14:23:16.335Z,20.67
2022-08-28T14:25:47.251Z,20.59
2022-08-28T14:28:14.990Z,20.54
2022-08-28T14:30:42.508Z,20.71
2022-08-28T14:33:11.898Z,20.69
2022-08-28T14:35:41.064Z,20.59
2022-08-28T14:38:11.723Z,20.49
2022-08-28T14:40:43.838Z,20.70
2022-08-28T14:43:14.629Z,20.53
2022-08-28T14:45:46.858Z,20.47
2022-08-28T14:48:15.022Z,20.63
2022-08-28T14:50:54.373Z,20.72
2022-08-28T14:53:21.347Z,20.53
2022-08-28T14:55:49.803Z,20.63
2022-08-28T14:58:19.201Z,20.78
2022-08-28T15:00:48.746Z,20.92
2022-08-28T15:03:16.583Z,20.73
2022-08-28T15:05:43.425Z,20.78
2022-08-28T15:08:14.512Z,20.89
2022-08-28T15:10:43.149Z,20.93
2022-08-28T15:13:13.308Z,21.21
2022-08-28T15:15:42.673Z,21.30
2022-08-28T15:18:11.049Z,21.46
2022-08-28T15:20:46.721Z,21.55
2022-08-28T15:23:15.149Z,21.40
2022-08-28T15:25:42.707Z,21.49
2022-08-28T15:28:09.976Z,21.55
2022-08-28T15:30:36.858Z,21.58
2022-08-28T15:33:04.077Z,21.46
2022-08-28T15:35:30.737Z,21.41
2022-08-28T15:37:57.369Z,21.36
2022-08-28T15:40:42.587Z,21.44
2022-08-28T15:43:11.130Z,21.39
2022-08-28T15:45:46.962Z,21.37
2022-08-28T15:48:13.534Z,21.34
2022-08-28T15:50:44.683Z,21.29
2022-08-28T15:53:14.549Z,21.38
2022-08-28T15:55:43.297Z,21.25
2022-08-28T15:58:13.765Z,21.40
2022-08-28T16:00:43.636Z,21.36
2022-08-28T16:03:13.188Z,21.27
2022-08-28T16:05:42.088Z,21.25
2022-08-28T16:08:12.127Z,21.12
2022-08-28T16:10:38.770Z,21.06
2022-08-28T16:13:06.611Z,21.07
2022-08-28T16:15:33.867Z,21.06
2022-08-28T16:18:00.355Z,21.17
2022-08-28T16:20:27.249Z,21.12
2022-08-28T16:22:54.114Z,21.13
2022-08-28T16:25:20.742Z,21.01
2022-08-28T16:27:47.153Z,21.01
2022-08-28T16:30:17.455Z,20.99
2022-08-28T16:32:47.851Z,20.98
2022-08-28T16:35:15.014Z,20.96
2022-08-28T16:37:42.264Z,20.91
2022-08-28T16:40:12.433Z,20.96
2022-08-28T16:42:41.418Z,20.96
2022-08-28T16:45:11.834Z,20.89
2022-08-28T16:47:38.648Z,20.76
2022-08-28T16:50:10.132Z,20.66
2022-08-28T16:52:36.548Z,20.75
2022-08-28T16:55:04.020Z,20.67
2022-08-28T16:57:30.567Z,20.52
2022-08-28T16:59:57.103Z,20.51
2022-08-28T17:02:25.241Z,20.50
2022-08-28T17:05:00.549Z,20.51
2022-08-28T17:07:29.426Z,20.46
2022-08-28T17:09:56.041Z,20.34
2022-08-28T17:12:25.503Z,20.30
2022-08-28T17:14:52.040Z,20.35
2022-08-28T17:17:18.512Z,20.34
2022-08-28T17:19:44.982Z,20.23
2022-08-28T17:22:30.260Z,20.25
2022-08-28T17:24:58.748Z,20.03
2022-08-28T17:27:26.132Z,20.00
2022-08-28T17:29:53.056Z,19.94
2022-08-28T17:32:19.648Z,19.86
2022-08-28T17:34:48.482Z,19.82
2022-08-28T17:37:15.702Z,19.84
2022-08-28T17:39:42.919Z,19.85
2022-08-28T17:42:12.325Z,19.75
2022-08-28T17:44:38.823Z,19.83
2022-08-28T17:47:05.953Z,19.73
2022-08-28T17:49:32.835Z,19.60
2022-08-28T17:51:59.296Z,19.54
2022-08-28T17:54:26.265Z,19.46
2022-08-28T17:56:54.375Z,19.47
2022-08-28T17:59:22.748Z,19.45
2022-08-28T18:01:50.047Z,19.47
2022-08-28T18:04:23.966Z,19.47
2022-08-28T18:06:55.019Z,19.38
2022-08-28T18:09:24.793Z,19.32
2022-08-28T18:11:51.857Z,19.21
2022-08-28T18:14:18.484Z,19.17
2022-08-28T18:16:45.035Z,19.20
2022-08-28T18:19:11.672Z,19.12
2022-08-28T18:21:38.817Z,19.13
2022-08-28T18:24:05.438Z,19.08
2022-08-28T18:26:32.042Z,19.07
2022-08-28T18:28:59.385Z,18.97
2022-08-28T18:31:26.511Z,18.94
2022-08-28T18:33:54.274Z,18.88
2022-08-28T18:36:22.946Z,18.81
2022-08-28T18:38:50.005Z,18.82
2022-08-28T18:41:16.543Z,18.75
2022-08-28T18:43:43.053Z,18.77
2022-08-28T18:46:10.026Z,18.79
2022-08-28T18:48:37.758Z,18.79
2022-08-28T18:51:08.605Z,18.67
2022-08-28T18:53:35.944Z,18.81
2022-08-28T18:56:02.768Z,18.80
2022-08-28T18:58:31.641Z,18.77
2022-08-28T19:01:00.938Z,18.74
2022-08-28T19:03:28.064Z,18.81
2022-08-28T19:05:56.111Z,18.72
2022-08-28T19:08:25.197Z,18.68
2022-08-28T19:10:52.664Z,18.67
2022-08-28T19:13:21.562Z,18.64
2022-08-28T19:15:50.685Z,18.64
2022-08-28T19:18:17.449Z,18.66
2022-08-28T19:20:44.033Z,18.69
2022-08-28T19:23:17.364Z,18.63
2022-08-28T19:25:44.304Z,18.60
2022-08-28T19:28:16.594Z,18.49
2022-08-28T19:30:46.487Z,18.43
2022-08-28T19:33:16.572Z,18.50
2022-08-28T19:35:43.327Z,18.55
2022-08-28T19:38:09.889Z,18.41
2022-08-28T19:40:38.807Z,18.34
2022-08-28T19:43:05.904Z,18.37
2022-08-28T19:45:32.464Z,18.36
2022-08-28T19:47:59.684Z,18.29
2022-08-28T19:50:26.792Z,18.29
2022-08-28T19:52:53.313Z,18.20
2022-08-28T19:55:23.355Z,18.28
2022-08-28T19:57:49.937Z,18.35
2022-08-28T20:00:19.894Z,18.32
2022-08-28T20:02:48.096Z,18.28
2022-08-28T20:05:15.023Z,18.25
2022-08-28T20:07:41.550Z,18.21
2022-08-28T20:10:08.653Z,18.17
2022-08-28T20:12:35.723Z,18.18
2022-08-28T20:15:03.732Z,18.09
2022-08-28T20:17:30.870Z,18.05
2022-08-28T20:20:02.386Z,18.11
2022-08-28T20:22:31.792Z,18.01
2022-08-28T20:24:59.013Z,17.94
2022-08-28T20:27:26.122Z,17.90
2022-08-28T20:29:52.627Z,17.90
2022-08-28T20:32:19.629Z,17.86
2022-08-28T20:34:47.250Z,17.83
2022-08-28T20:37:17.162Z,17.83
2022-08-28T20:39:43.689Z,17.76
2022-08-28T20:42:11.908Z,17.82
2022-08-28T20:44:38.465Z,17.81
2022-08-28T20:47:05.271Z,17.88
2022-08-28T20:49:31.820Z,17.88
2022-08-28T20:52:00.870Z,17.87
2022-08-28T20:54:37.395Z,17.84
2022-08-28T20:57:07.479Z,17.91
2022-08-28T20:59:40.068Z,17.88
2022-08-28T21:02:17.352Z,17.80
2022-08-28T21:04:45.498Z,17.83
2022-08-28T21:07:13.723Z,17.83
2022-08-28T21:10:05.230Z,17.79
2022-08-28T21:12:30.336Z,17.84
2022-08-28T21:14:56.874Z,17.82
2022-08-28T21:17:30.271Z,17.81
2022-08-28T21:20:02.902Z,17.88
2022-08-28T21:22:31.410Z,17.78
2022-08-28T21:25:01.794Z,17.80
2022-08-28T21:27:29.480Z,17.73
2022-08-28T21:29:57.524Z,17.79
2022-08-28T21:32:24.476Z,17.84
2022-08-28T21:34:51.251Z,17.81
2022-08-28T21:37:17.738Z,17.80
2022-08-28T21:39:44.277Z,17.78
2022-08-28T21:42:13.872Z,17.79
2022-08-28T21:44:48.377Z,17.71
2022-08-28T21:47:19.499Z,17.72
2022-08-28T21:49:49.393Z,17.58
2022-08-28T21:52:18.121Z,17.59
2022-08-28T21:54:47.959Z,17.60
2022-08-28T21:57:15.781Z,17.64
2022-08-28T21:59:43.545Z,17.66
2022-08-28T22:02:10.113Z,17.62
2022-08-28T22:04:36.732Z,17.64
2022-08-28T22:07:03.260Z,17.57
2022-08-28T22:09:29.742Z,17.46
2022-08-28T22:11:56.425Z,17.54
2022-08-28T22:14:24.569Z,17.56
2022-08-28T22:16:51.166Z,17.50
2022-08-28T22:19:17.762Z,17.47
2022-08-28T22:22:02.551Z,17.42
2022-08-28T22:24:29.880Z,17.43
2022-08-28T22:26:57.518Z,17.47
2022-08-28T22:29:24.848Z,17.42
2022-08-28T22:31:51.432Z,17.50
2022-08-28T22:34:18.090Z,17.42
2022-08-28T22:36:44.608Z,17.37
2022-08-28T22:39:14.314Z,17.30
2022-08-28T22:41:41.997Z,17.32
2022-08-28T22:44:08.780Z,17.29
2022-08-28T22:46:35.908Z,17.24
2022-08-28T22:49:02.551Z,17.20
2022-08-28T22:51:31.016Z,17.21
2022-08-28T22:53:57.622Z,17.20
2022-08-28T22:56:24.719Z,17.19
2022-08-28T22:58:51.249Z,17.16
2022-08-28T23:01:22.456Z,17.13
2022-08-28T23:03:49.436Z,17.07
2022-08-28T23:06:18.087Z,17.05
2022-08-28T23:08:44.587Z,17.05
2022-08-28T23:11:11.356Z,16.98
2022-08-28T23:13:38.552Z,16.95
2022-08-28T23:16:27.237Z,16.98
2022-08-28T23:19:08.783Z,17.00
2022-08-28T23:21:39.229Z,17.02
2022-08-28T23:24:09.976Z,17.02
2022-08-28T23:26:36.512Z,17.02
2022-08-28T23:29:03.469Z,16.96
2022-08-28T23:31:29.960Z,16.89
2022-08-28T23:34:01.282Z,16.81
2022-08-28T23:36:37.159Z,16.79
2022-08-28T23:39:08.901Z,16.86
2022-08-28T23:41:35.400Z,16.83
2022-08-28T23:44:08.276Z,16.80
2022-08-28T23:46:36.508Z,16.85
2022-08-28T23:49:03.869Z,16.79
2022-08-28T23:51:35.453Z,16.75
2022-08-28T23:54:02.392Z,16.77
2022-08-28T23:56:30.485Z,16.71
2022-08-28T23:58:56.962Z,16.67
